Time;durP1;ratioP1;P1;durP2;ratioP2;P2;SDS_P1;SDS_P2;PMS_P1;PMS_P2;Temp;Humidity;BMP_temperature;BMP_pressure;BME280_temperature;BME280_humidity;BME280_pressure;Samples;Min_cycle;Max_cycle;Signal;HPM_P1;HPM_P2
2022/05/14 00:00:25;;;;;;;4.65;2.33;;;;;;;13.63;53.66;99367.72;2618914;31;20519;-69
2022/05/14 00:02:55;;;;;;;6.05;2.70;;;;;;;13.57;53.27;99365.84;2617309;46;20034;-68
2022/05/14 00:05:27;;;;;;;4.05;2.40;;;;;;;13.37;54.14;99364.91;2617865;54;20557;-69
2022/05/14 00:07:57;;;;;;;4.13;2.80;;;;;;;13.04;54.90;99370.00;2617770;46;20073;-68
2022/05/14 00:10:32;;;;;;;4.13;2.60;;;;;;;12.98;55.27;99363.66;2618404;39;20410;-68
2022/05/14 00:13:05;;;;;;;5.93;2.65;;;;;;;13.05;55.00;99363.69;2617560;47;20065;-69
2022/05/14 00:15:40;;;;;;;5.22;2.75;;;;;;;13.12;54.72;99365.38;2617878;54;20056;-70
2022/05/14 00:18:12;;;;;;;4.53;2.80;;;;;;;13.11;54.76;99370.88;2617591;54;20127;-68
2022/05/14 00:20:42;;;;;;;5.95;3.00;;;;;;;13.01;54.93;99363.25;2617387;51;20034;-69
2022/05/14 00:23:14;;;;;;;6.40;3.15;;;;;;;12.93;55.19;99365.25;2617055;51;20588;-68
2022/05/14 00:25:46;;;;;;;5.38;2.90;;;;;;;12.86;55.60;99359.91;2617710;54;20069;-68
2022/05/14 00:28:16;;;;;;;4.32;2.47;;;;;;;12.78;55.70;99370.66;2617987;39;20503;-69
2022/05/14 00:30:46;;;;;;;6.50;2.65;;;;;;;12.71;55.68;99361.81;2617590;39;20391;-68
2022/05/14 00:33:15;;;;;;;2.88;2.28;;;;;;;12.64;55.91;99361.75;2618752;31;20500;-69
2022/05/14 00:35:46;;;;;;;4.18;2.30;;;;;;;12.68;55.97;99363.03;2617564;54;20549;-68
2022/05/14 00:38:16;;;;;;;4.13;2.45;;;;;;;12.74;55.70;99353.50;2617195;50;20526;-68
2022/05/14 00:40:56;;;;;;;3.53;2.38;;;;;;;12.75;55.94;99361.25;2617923;54;20030;-68
2022/05/14 00:43:25;;;;;;;7.63;2.63;;;;;;;12.70;56.50;99363.66;2617622;39;20415;-68
2022/05/14 00:45:58;;;;;;;4.10;2.58;;;;;;;12.88;56.52;99360.50;2617191;54;20146;-68
2022/05/14 00:48:37;;;;;;;3.75;2.42;;;;;;;12.85;56.43;99361.72;2616838;47;20031;-69
2022/05/14 00:51:10;;;;;;;5.93;2.30;;;;;;;12.85;56.32;99366.19;2617699;54;20166;-68
2022/05/14 00:53:44;;;;;;;3.25;2.42;;;;;;;12.60;56.72;99365.81;2618079;54;20030;-69
2022/05/14 00:56:19;;;;;;;;;;;;;;;12.60;56.91;99363.16;2617884;47;20093;-68
2022/05/14 00:58:54;;;;;;;6.22;2.13;;;;;;;12.56;56.79;99365.38;2618531;39;20355;-69
2022/05/14 01:01:23;;;;;;;3.67;2.60;;;;;;;12.60;56.87;99371.13;2618560;39;20504;-67
2022/05/14 01:03:53;;;;;;;2.67;2.00;;;;;;;12.49;57.23;99363.66;2618162;47;20026;-67
2022/05/14 01:06:24;;;;;;;3.92;2.60;;;;;;;12.37;57.83;99366.03;2619609;54;20585;-69
2022/05/14 01:08:54;;;;;;;4.03;2.40;;;;;;;12.48;57.24;99365.50;2622007;47;20045;-67
2022/05/14 01:11:26;;;;;;;3.88;2.17;;;;;;;12.49;57.60;99363.66;2620129;54;20033;-69
2022/05/14 01:13:57;;;;;;;5.88;2.13;;;;;;;12.53;57.63;99371.09;2621719;54;20118;-68
2022/05/14 01:16:29;;;;;;;3.47;1.98;;;;;;;12.48;57.25;99365.50;2622841;51;20094;-69
2022/05/14 01:18:59;;;;;;;2.63;2.10;;;;;;;12.43;57.71;99367.91;2622652;47;20590;-68
2022/05/14 01:21:41;;;;;;;2.13;1.90;;;;;;;12.39;57.66;99372.78;2622719;47;20037;-71
2022/05/14 01:27:06;;;;;;;5.18;2.03;;;;;;;12.14;58.15;99371.53;2623207;54;20026;-68
2022/05/14 01:29:37;;;;;;;3.80;2.15;;;;;;;12.23;58.06;99367.72;2623556;54;20062;-68
2022/05/14 01:32:11;;;;;;;3.00;1.95;;;;;;;12.19;57.61;99371.78;2623058;46;20033;-68
2022/05/14 01:34:41;;;;;;;4.97;2.58;;;;;;;11.95;58.50;99372.94;2623734;54;20023;-68
2022/05/14 01:37:11;;;;;;;2.90;1.83;;;;;;;11.87;58.81;99367.75;2621585;47;20034;-70
2022/05/14 01:39:43;;;;;;;3.25;2.20;;;;;;;11.84;59.10;99368.97;2619999;47;20026;-69
2022/05/14 01:42:16;;;;;;;7.88;2.30;;;;;;;11.87;59.32;99365.13;2620765;47;20030;-69
2022/05/14 01:44:46;;;;;;;4.05;2.30;;;;;;;11.75;59.25;99375.34;2621717;46;20506;-69
2022/05/14 01:47:16;;;;;;;4.10;2.30;;;;;;;11.74;59.70;99370.25;2622269;54;20119;-68
2022/05/14 01:49:46;;;;;;;3.92;1.70;;;;;;;11.75;59.68;99364.75;2622698;54;20033;-68
2022/05/14 01:52:18;;;;;;;4.25;2.47;;;;;;;11.72;59.59;99369.63;2621872;47;20030;-69
2022/05/14 01:54:48;;;;;;;2.45;1.75;;;;;;;11.63;59.54;99363.59;2622273;54;20173;-69
2022/05/14 01:57:21;;;;;;;4.00;1.85;;;;;;;11.70;59.99;99358.38;2622424;47;20077;-69
2022/05/14 01:59:51;;;;;;;4.50;2.22;;;;;;;11.74;59.54;99365.75;2623530;54;20038;-68
2022/05/14 02:02:21;;;;;;;2.88;2.10;;;;;;;11.70;59.62;99364.50;2623458;51;20035;-68
2022/05/14 02:04:51;;;;;;;3.33;2.00;;;;;;;11.51;60.06;99365.91;2623242;51;20098;-72
2022/05/14 02:07:21;;;;;;;6.60;2.10;;;;;;;11.49;60.08;99356.50;2623881;47;20034;-71
2022/05/14 02:09:51;;;;;;;3.80;2.60;;;;;;;11.40;60.14;99353.94;2624459;47;20038;-69
2022/05/14 02:12:24;;;;;;;4.22;2.00;;;;;;;11.29;60.59;99350.94;2625158;54;20038;-68
2022/05/14 02:14:53;;;;;;;3.83;2.20;;;;;;;11.31;60.52;99351.59;2624598;51;20077;-69
2022/05/14 02:17:23;;;;;;;4.60;2.22;;;;;;;11.37;60.45;99351.66;2624534;54;20122;-67
2022/05/14 02:19:53;;;;;;;3.10;2.20;;;;;;;11.36;60.26;99357.16;2624830;39;20426;-68
2022/05/14 02:22:22;;;;;;;3.28;1.83;;;;;;;11.33;60.62;99353.03;2624845;54;20030;-67
2022/05/14 02:24:54;;;;;;;3.40;2.40;;;;;;;11.52;60.71;99353.50;2623347;47;20035;-67
2022/05/14 02:27:27;;;;;;;5.95;2.38;;;;;;;11.55;60.53;99346.00;2623265;54;20034;-69
2022/05/14 02:29:58;;;;;;;4.18;2.20;;;;;;;11.57;60.19;99349.28;2622142;46;20101;-68
2022/05/14 02:32:29;;;;;;;6.68;2.40;;;;;;;11.35;60.70;99347.56;2621953;54;20034;-69
2022/05/14 02:34:59;;;;;;;5.28;2.30;;;;;;;11.37;60.85;99349.03;2621474;48;20023;-68
2022/05/14 02:37:29;;;;;;;4.45;2.28;;;;;;;11.27;60.50;99348.50;2620636;47;20075;-69
2022/05/14 02:39:59;;;;;;;4.00;1.67;;;;;;;11.28;60.98;99351.97;2617819;47;20027;-68
2022/05/14 02:42:33;;;;;;;2.50;1.95;;;;;;;11.26;61.09;99349.47;2617732;47;20101;-68
2022/05/14 02:45:02;;;;;;;4.03;2.20;;;;;;;11.19;60.91;99355.72;2617658;47;20535;-69
2022/05/14 02:47:32;;;;;;;3.20;2.22;;;;;;;11.30;60.96;99355.22;2618076;54;20542;-69
2022/05/14 02:50:02;;;;;;;4.28;2.25;;;;;;;11.42;60.59;99369.63;2618784;54;20035;-67
2022/05/14 02:52:32;;;;;;;4.22;2.17;;;;;;;11.34;61.00;99362.63;2617787;47;20034;-69
2022/05/14 02:55:03;;;;;;;2.17;1.92;;;;;;;11.43;60.89;99365.16;2618640;47;20030;-69
2022/05/14 02:57:36;;;;;;;4.43;2.28;;;;;;;11.35;60.43;99364.28;2621501;54;20085;-69
2022/05/14 03:00:08;;;;;;;4.55;2.10;;;;;;;11.23;60.42;99368.38;2622360;54;20027;-69
2022/05/14 03:02:39;;;;;;;3.40;1.98;;;;;;;11.04;61.31;99366.28;2621798;47;20054;-69
2022/05/14 03:05:12;;;;;;;3.88;1.90;;;;;;;11.03;61.54;99365.47;2622605;54;20558;-67
2022/05/14 03:07:43;;;;;;;5.00;1.85;;;;;;;10.96;61.46;99366.38;2621164;54;20566;-69
2022/05/14 03:10:14;;;;;;;8.38;2.60;;;;;;;10.86;61.40;99370.09;2619683;47;20038;-67
2022/05/14 03:12:46;;;;;;;4.75;2.50;;;;;;;10.65;61.85;99373.44;2617706;54;20049;-67
2022/05/14 03:15:16;;;;;;;5.25;2.30;;;;;;;10.61;62.16;99369.50;2618223;54;20158;-67
2022/05/14 03:17:46;;;;;;;4.07;2.33;;;;;;;10.58;62.23;99369.88;2617522;47;20026;-67
2022/05/14 03:20:16;;;;;;;4.70;2.15;;;;;;;10.58;62.71;99369.03;2617789;47;20038;-67
2022/05/14 03:22:46;;;;;;;5.22;2.00;;;;;;;10.54;62.67;99373.03;2618188;54;20081;-67
2022/05/14 03:25:15;;;;;;;4.90;2.40;;;;;;;10.53;62.70;99368.72;2618127;54;20065;-67
2022/05/14 03:27:49;;;;;;;3.05;2.10;;;;;;;10.50;62.11;99375.22;2618501;54;20033;-67
2022/05/14 03:30:19;;;;;;;3.67;1.90;;;;;;;10.49;62.51;99378.88;2618489;54;20037;-67
2022/05/14 03:32:49;;;;;;;3.33;1.70;;;;;;;10.61;62.43;99377.44;2617922;47;20041;-67
2022/05/14 03:35:19;;;;;;;2.80;2.10;;;;;;;10.78;62.36;99378.13;2618295;54;20060;-70
2022/05/14 03:37:49;;;;;;;3.67;2.05;;;;;;;10.81;61.81;99371.63;2625143;54;20026;-68
2022/05/14 03:40:20;;;;;;;2.92;2.13;;;;;;;10.78;61.78;99378.13;2624753;47;20074;-67
2022/05/14 03:42:52;;;;;;;2.50;1.70;;;;;;;10.83;61.59;99382.84;2624771;54;20094;-68
2022/05/14 03:45:22;;;;;;;2.42;2.15;;;;;;;10.89;61.36;99379.47;2625136;39;20444;-69
2022/05/14 03:47:53;;;;;;;2.58;2.30;;;;;;;10.89;60.96;99385.59;2617600;54;20519;-68
2022/05/14 03:50:23;;;;;;;6.78;2.42;;;;;;;10.77;61.28;99384.38;2618099;54;20146;-68
2022/05/14 03:52:53;;;;;;;2.75;1.88;;;;;;;10.68;61.89;99390.75;2617468;50;20022;-69
2022/05/14 03:55:23;;;;;;;3.08;2.15;;;;;;;10.80;62.10;99394.59;2618063;39;20529;-68
2022/05/14 03:57:55;;;;;;;4.20;1.83;;;;;;;10.77;61.88;99389.66;2617373;47;20026;-69
2022/05/14 04:00:25;;;;;;;9.98;3.15;;;;;;;10.67;61.94;99391.75;2617525;54;20030;-67
2022/05/14 04:02:55;;;;;;;4.88;2.70;;;;;;;10.73;61.97;99391.03;2618157;54;20614;-68
2022/05/14 04:05:25;;;;;;;3.60;2.10;;;;;;;10.85;62.21;99391.41;2618285;54;20054;-68
2022/05/14 04:07:55;;;;;;;3.22;2.00;;;;;;;10.90;61.61;99392.53;2617213;47;20027;-69
2022/05/14 04:10:26;;;;;;;4.75;1.67;;;;;;;11.01;61.74;99390.44;2617521;46;20114;-67
2022/05/14 04:12:59;;;;;;;4.20;2.05;;;;;;;11.10;61.57;99386.72;2618000;54;20609;-69
2022/05/14 04:15:29;;;;;;;2.75;1.83;;;;;;;11.01;61.27;99388.63;2617499;51;20125;-68
2022/05/14 04:18:00;;;;;;;3.78;2.40;;;;;;;10.91;61.30;99398.66;2617228;48;20651;-68
2022/05/14 04:20:30;;;;;;;2.08;1.90;;;;;;;10.77;61.79;99391.50;2617720;47;20049;-68
2022/05/14 04:23:00;;;;;;;3.45;2.10;;;;;;;10.78;61.72;99391.34;2617979;39;20446;-68
2022/05/14 04:25:30;;;;;;;13.43;8.20;;;;;;;10.83;62.30;99391.63;2617471;47;20047;-68
2022/05/14 04:28:03;;;;;;;4.63;2.35;;;;;;;10.82;61.77;99389.16;2617511;54;20030;-68
2022/05/14 04:30:33;;;;;;;4.20;2.40;;;;;;;10.84;61.92;99392.44;2617944;54;20022;-68
2022/05/14 04:33:03;;;;;;;7.43;3.30;;;;;;;10.76;61.54;99387.22;2619942;54;20029;-68
2022/05/14 04:35:33;;;;;;;23.83;15.10;;;;;;;10.68;62.45;99390.75;2625057;54;20032;-70
2022/05/14 04:38:02;;;;;;;3.42;2.60;;;;;;;10.76;62.21;99395.97;2627873;39;20434;-68
2022/05/14 04:40:32;;;;;;;4.35;2.20;;;;;;;10.66;62.47;99387.47;2622180;51;20034;-69
2022/05/14 04:43:07;;;;;;;4.13;2.20;;;;;;;10.79;62.14;99390.34;2617552;47;20030;-68
2022/05/14 04:45:38;;;;;;;4.32;2.35;;;;;;;10.82;62.29;99389.97;2617206;47;20155;-68
2022/05/14 04:48:10;;;;;;;2.78;2.10;;;;;;;10.81;62.15;99383.03;2617174;47;20134;-68
2022/05/14 04:50:42;;;;;;;2.85;2.03;;;;;;;10.83;62.26;99388.97;2617293;47;20038;-67
2022/05/14 04:53:12;;;;;;;5.18;2.58;;;;;;;10.82;61.83;99383.88;2617329;47;20038;-67
2022/05/14 04:55:42;;;;;;;5.63;2.15;;;;;;;10.85;62.30;99383.50;2617742;54;20027;-67
2022/05/14 04:58:15;;;;;;;5.10;3.53;;;;;;;10.94;61.56;99393.00;2616909;54;20027;-67
2022/05/14 05:00:49;;;;;;;7.47;4.85;;;;;;;11.00;61.22;99384.34;2617154;54;20030;-68
2022/05/14 05:03:19;;;;;;;7.07;2.50;;;;;;;11.03;61.07;99389.28;2617114;47;20125;-67
2022/05/14 05:05:58;;;;;;;4.47;3.05;;;;;;;11.08;61.79;99389.53;2617134;54;20561;-68
2022/05/14 05:08:31;;;;;;;9.75;2.97;;;;;;;11.19;61.01;99385.63;2617027;54;20589;-69
2022/05/14 05:11:01;;;;;;;4.60;2.63;;;;;;;11.32;61.00;99396.41;2617876;54;20605;-69
2022/05/14 05:13:35;;;;;;;3.00;2.15;;;;;;;11.39;60.97;99394.66;2618251;54;20042;-69
2022/05/14 05:16:05;;;;;;;4.35;2.08;;;;;;;11.41;60.26;99397.94;2619796;39;20427;-69
2022/05/14 05:18:36;;;;;;;4.10;2.10;;;;;;;11.46;60.41;99396.56;2617865;54;20061;-70
2022/05/14 05:21:06;;;;;;;5.43;2.42;;;;;;;11.57;59.92;99399.56;2618343;39;20430;-68
2022/05/14 05:23:37;;;;;;;4.70;2.17;;;;;;;11.64;60.33;99410.25;2618015;54;20049;-68
2022/05/14 05:26:06;;;;;;;5.38;2.65;;;;;;;11.62;60.16;99410.44;2618370;54;20042;-68
2022/05/14 05:28:39;;;;;;;3.58;2.00;;;;;;;11.71;59.98;99412.97;2618814;54;20030;-69
2022/05/14 05:31:08;;;;;;;5.35;2.45;;;;;;;11.82;59.68;99409.88;2619455;54;20149;-68
2022/05/14 05:33:39;;;;;;;6.07;3.17;;;;;;;11.75;60.03;99416.91;2617931;54;20084;-68
2022/05/14 05:36:09;;;;;;;4.65;2.30;;;;;;;11.92;59.95;99417.53;2618373;46;20057;-68
2022/05/14 05:38:39;;;;;;;2.95;2.03;;;;;;;12.10;59.65;99410.84;2618815;39;20447;-69
2022/05/14 05:41:09;;;;;;;4.35;2.47;;;;;;;12.29;59.20;99413.88;2618132;54;20089;-70
2022/05/14 05:43:41;;;;;;;4.15;2.10;;;;;;;12.45;59.33;99412.78;2619093;39;20399;-65
2022/05/14 05:46:12;;;;;;;6.15;4.32;;;;;;;12.61;58.31;99420.50;2619037;54;20053;-68
2022/05/14 05:48:42;;;;;;;5.18;3.67;;;;;;;12.57;58.48;99416.56;2619256;54;20045;-67
2022/05/14 05:51:13;;;;;;;6.30;3.28;;;;;;;12.62;59.00;99419.50;2619828;39;20423;-66
2022/05/14 05:59:11;;;;;;;7.00;3.85;;;;;;;12.40;58.91;99413.38;2619087;39;20418;-67
2022/05/14 06:01:41;;;;;;;3.97;2.53;;;;;;;12.43;59.46;99415.66;2618421;39;20410;-67
2022/05/14 06:04:11;;;;;;;3.92;2.50;;;;;;;12.64;59.12;99412.16;2618478;54;20117;-68
2022/05/14 06:06:42;;;;;;;4.63;3.30;;;;;;;12.75;58.51;99416.97;2618656;54;20026;-67
2022/05/14 06:09:13;;;;;;;5.60;2.97;;;;;;;12.85;58.69;99417.44;2617826;54;20065;-67
2022/05/14 06:11:44;;;;;;;4.57;2.92;;;;;;;13.00;58.17;99417.34;2618558;39;20486;-67
2022/05/14 06:14:17;;;;;;;4.18;3.05;;;;;;;13.04;57.93;99417.78;2618760;54;20038;-69
2022/05/14 06:16:47;;;;;;;4.75;2.70;;;;;;;13.05;57.53;99420.25;2618163;54;20034;-68
2022/05/14 06:19:17;;;;;;;5.22;2.83;;;;;;;13.08;58.33;99427.00;2618767;54;20034;-68
2022/05/14 06:21:46;;;;;;;5.70;3.08;;;;;;;13.28;57.82;99417.38;2618656;39;20442;-68
2022/05/14 06:24:16;;;;;;;4.32;2.72;;;;;;;13.41;57.71;99424.59;2618614;54;20038;-68
2022/05/14 06:26:46;;;;;;;6.00;3.20;;;;;;;13.56;57.27;99424.47;2618896;54;20026;-68
2022/05/14 06:29:18;;;;;;;5.05;3.65;;;;;;;13.65;57.41;99423.28;2619070;54;20061;-69
2022/05/14 06:31:48;;;;;;;6.82;4.15;;;;;;;13.74;57.05;99429.25;2618436;54;20026;-70
2022/05/14 06:34:18;;;;;;;5.55;4.00;;;;;;;13.90;56.94;99428.91;2618633;54;20019;-68
2022/05/14 06:36:47;;;;;;;6.25;3.05;;;;;;;14.03;56.15;99433.47;2618690;54;20077;-70
2022/05/14 06:39:17;;;;;;;5.07;2.78;;;;;;;14.04;56.42;99430.63;2618383;54;20045;-68
2022/05/14 06:41:48;;;;;;;5.45;3.00;;;;;;;13.94;56.44;99432.00;2620828;54;20043;-68
2022/05/14 06:44:20;;;;;;;4.25;2.95;;;;;;;13.93;56.67;99433.84;2622871;39;20438;-69
2022/05/14 06:46:50;;;;;;;4.15;2.70;;;;;;;14.04;56.27;99424.44;2620874;54;20057;-68
2022/05/14 06:49:20;;;;;;;7.15;3.33;;;;;;;14.16;56.63;99432.69;2622675;54;20027;-68
2022/05/14 06:51:52;;;;;;;4.78;3.10;;;;;;;14.28;56.39;99431.06;2623485;54;20134;-68
2022/05/14 06:54:23;;;;;;;5.13;2.45;;;;;;;14.38;55.84;99434.19;2621297;54;20030;-68
2022/05/14 06:56:53;;;;;;;5.38;2.47;;;;;;;14.61;55.63;99433.81;2621421;39;20446;-67
2022/05/14 06:59:27;;;;;;;5.70;3.40;;;;;;;14.81;55.52;99436.50;2621312;54;20026;-70
2022/05/14 07:01:56;;;;;;;;;;;;;;;15.02;55.49;99440.78;2622669;39;20439;-69
2022/05/14 07:07:08;;;;;;;3.88;2.05;;;;;;;15.19;54.03;99438.53;2623122;47;20034;-69
2022/05/14 07:09:38;;;;;;;3.13;2.35;;;;;;;15.26;54.04;99434.00;2623354;54;20041;-70
2022/05/14 07:12:10;;;;;;;30.73;18.52;;;;;;;15.41;53.55;99436.44;2622161;31;20535;-67
2022/05/14 07:14:44;;;;;;;6.63;3.15;;;;;;;15.51;53.76;99434.16;2621028;54;20044;-68
2022/05/14 07:17:14;;;;;;;469.58;254.63;;;;;;;15.63;52.63;99435.16;2620611;54;20038;-68
2022/05/14 07:19:44;;;;;;;220.43;105.95;;;;;;;15.57;52.53;99436.81;2619030;47;20045;-67
2022/05/14 07:22:15;;;;;;;106.40;45.60;;;;;;;15.62;52.78;99433.50;2619619;54;20030;-68
2022/05/14 07:24:45;;;;;;;4.88;3.72;;;;;;;15.67;52.75;99439.06;2619833;54;20030;-69
2022/05/14 07:27:16;;;;;;;97.07;43.33;;;;;;;15.87;53.07;99441.66;2618936;54;20049;-68
2022/05/14 07:29:49;;;;;;;13.40;6.28;;;;;;;15.97;52.69;99439.38;2618088;54;20027;-69
2022/05/14 07:32:21;;;;;;;5.05;2.50;;;;;;;15.99;52.97;99434.63;2618734;54;20030;-68
2022/05/14 07:34:50;;;;;;;6.05;2.50;;;;;;;16.05;52.58;99438.31;2619670;54;20038;-68
2022/05/14 07:37:25;;;;;;;8.60;4.10;;;;;;;16.14;52.33;99437.03;2622893;54;20026;-69
2022/05/14 07:39:59;;;;;;;4.10;2.00;;;;;;;16.28;51.82;99435.09;2623287;54;20069;-68
2022/05/14 07:42:33;;;;;;;14.32;7.30;;;;;;;16.45;51.54;99432.72;2623101;54;20045;-68
2022/05/14 07:45:09;;;;;;;3.55;2.33;;;;;;;16.59;51.36;99435.13;2622575;54;20026;-68
2022/05/14 07:47:41;;;;;;;5.97;2.60;;;;;;;16.64;51.04;99431.78;2622489;47;20041;-69
2022/05/14 07:50:12;;;;;;;7.35;2.60;;;;;;;16.68;50.82;99435.66;2622464;54;20041;-70
2022/05/14 07:52:42;;;;;;;6.82;2.40;;;;;;;16.76;50.43;99431.94;2621429;54;20547;-70
2022/05/14 09:58:44;;;;;;;4.13;2.35;;;;;;;20.15;40.42;99372.34;2603801;46;20121;-67
2022/05/14 10:01:20;;;;;;;3.25;1.60;;;;;;;20.20;40.33;99367.06;2619283;54;20030;-64
2022/05/14 10:04:07;;;;;;;5.85;2.58;;;;;;;20.37;40.56;99368.94;2619112;47;20069;-64
2022/05/14 10:06:47;;;;;;;8.00;2.13;;;;;;;20.56;39.74;99364.19;2619234;54;20043;-64
2022/05/14 10:09:25;;;;;;;4.43;1.92;;;;;;;20.44;39.68;99365.06;2619880;39;20438;-64
2022/05/14 10:12:00;;;;;;;5.60;1.88;;;;;;;20.47;39.11;99358.38;2619503;54;20058;-66
2022/05/14 10:14:47;;;;;;;3.88;2.08;;;;;;;20.45;38.73;99361.34;2619692;54;20026;-63
2022/05/14 10:17:38;;;;;;;4.13;1.97;;;;;;;20.48;39.35;99362.69;2623643;54;20086;-65
2022/05/14 10:20:28;;;;;;;5.05;2.22;;;;;;;20.65;39.76;99360.03;2625644;54;20366;-64
2022/05/14 10:29:13;;;;;;;3.00;1.70;;;;;;;20.97;38.69;99347.63;2624198;54;20026;-66
2022/05/14 10:31:51;;;;;;;6.00;2.00;;;;;;;21.06;38.59;99342.66;2625272;54;20030;-65
2022/05/14 10:34:33;;;;;;;3.63;1.85;;;;;;;20.97;38.61;99346.81;2624856;54;20034;-67
2022/05/14 10:37:08;;;;;;;4.93;2.05;;;;;;;21.00;38.55;99344.47;2624726;54;20038;-66
2022/05/14 10:39:44;;;;;;;5.28;3.38;;;;;;;21.10;38.63;99348.34;2624362;54;20034;-66
2022/05/14 10:42:34;;;;;;;5.30;2.05;;;;;;;21.09;38.80;99336.78;2620570;54;20034;-67
2022/05/14 10:45:10;;;;;;;4.03;2.22;;;;;;;21.07;38.84;99338.91;2619523;54;20045;-67
2022/05/14 10:47:48;;;;;;;2.25;1.80;;;;;;;21.10;38.57;99341.09;2620058;54;20073;-63
2022/05/14 10:50:21;;;;;;;4.78;2.17;;;;;;;21.12;38.38;99338.16;2619399;54;20042;-64
2022/05/14 10:52:52;;;;;;;;;;;;;;;21.17;38.21;99343.59;2618315;54;20031;-64
2022/05/14 10:55:25;;;;;;;3.00;1.42;;;;;;;21.26;37.89;99336.72;2618517;54;19958;-65
2022/05/14 10:57:59;;;;;;;6.78;2.20;;;;;;;21.28;37.55;99330.06;2617615;54;20030;-64
2022/05/14 11:00:40;;;;;;;2.90;1.45;;;;;;;21.30;37.40;99332.47;2618877;54;20038;-66
2022/05/14 11:03:16;;;;;;;6.68;1.80;;;;;;;21.51;37.24;99328.19;2619092;54;20037;-66
2022/05/14 11:06:09;;;;;;;5.50;2.22;;;;;;;21.78;37.11;99314.78;2619034;54;20026;-64
2022/05/14 11:08:42;;;;;;;4.20;1.92;;;;;;;21.88;36.59;99316.75;2619432;54;20038;-66
2022/05/14 11:11:17;;;;;;;1.92;1.50;;;;;;;21.84;36.65;99315.63;2619013;54;20546;-63
2022/05/14 11:14:04;;;;;;;3.13;1.65;;;;;;;21.92;36.11;99312.50;2618634;54;20038;-64
2022/05/14 11:16:45;;;;;;;8.27;4.70;;;;;;;21.99;35.82;99316.59;2618841;54;20046;-64
2022/05/14 11:19:27;;;;;;;6.03;3.55;;;;;;;22.10;35.09;99314.03;2619162;54;20030;-65
2022/05/14 11:21:58;;;;;;;3.42;2.03;;;;;;;22.24;34.62;99318.75;2619437;54;20038;-64
2022/05/14 11:24:38;;;;;;;6.85;1.75;;;;;;;22.36;34.44;99320.47;2620179;39;20097;-64
2022/05/14 11:27:08;;;;;;;3.53;1.73;;;;;;;22.28;33.53;99312.84;2618783;54;20041;-64
2022/05/14 11:29:51;;;;;;;7.38;1.65;;;;;;;22.17;33.81;99317.34;2619358;54;20042;-64
2022/05/14 11:32:23;;;;;;;3.85;1.33;;;;;;;22.18;34.05;99311.69;2619205;54;20683;-64
2022/05/14 11:34:59;;;;;;;2.00;1.20;;;;;;;22.32;33.32;99306.69;2619794;39;20454;-65
2022/05/14 11:37:31;;;;;;;6.63;2.60;;;;;;;22.28;33.11;99318.25;2619488;54;20037;-63
2022/05/14 11:40:19;;;;;;;4.88;1.40;;;;;;;22.24;33.22;99315.25;2618992;54;20582;-64
2022/05/14 11:42:51;;;;;;;3.58;1.80;;;;;;;22.31;33.28;99301.56;2619300;54;20041;-63
2022/05/14 11:45:24;;;;;;;3.95;1.42;;;;;;;22.43;32.42;99303.00;2619058;54;20526;-64
2022/05/14 11:48:01;;;;;;;3.10;1.98;;;;;;;22.49;33.18;99301.16;2618539;54;20038;-65
2022/05/14 11:50:47;;;;;;;2.10;1.50;;;;;;;22.61;32.69;99287.50;2619227;54;20038;-65
2022/05/14 11:53:34;;;;;;;8.13;1.63;;;;;;;22.60;33.07;99292.09;2620305;54;20049;-65
2022/05/14 11:56:10;;;;;;;12.13;1.80;;;;;;;22.82;32.71;99283.88;2619601;39;20738;-64
2022/05/14 11:58:44;;;;;;;5.47;2.10;;;;;;;22.99;32.79;99286.44;2618763;54;20030;-64
2022/05/14 12:01:19;;;;;;;5.68;1.80;;;;;;;23.12;32.68;99277.03;2618209;47;20037;-67
2022/05/14 12:03:50;;;;;;;3.30;1.50;;;;;;;23.31;32.52;99274.69;2619192;39;20414;-64
2022/05/14 12:06:41;;;;;;;3.28;1.70;;;;;;;23.54;31.18;99274.22;2617820;54;20030;-64
2022/05/14 12:09:31;;;;;;;2.22;1.30;;;;;;;23.52;31.47;99276.38;2617876;47;20031;-64
2022/05/14 12:12:08;;;;;;;2.47;1.40;;;;;;;23.53;31.20;99275.31;2619281;39;20446;-64
2022/05/14 12:14:39;;;;;;;4.85;2.03;;;;;;;23.48;30.88;99276.09;2618784;54;20173;-65
2022/05/14 12:17:17;;;;;;;3.63;1.33;;;;;;;23.41;30.72;99272.84;2618948;39;20444;-66
2022/05/14 12:19:50;;;;;;;1.40;1.20;;;;;;;23.27;31.26;99273.59;2619582;54;20045;-65
2022/05/14 12:22:29;;;;;;;3.80;1.45;;;;;;;23.37;31.28;99269.03;2618522;54;20034;-65
2022/05/14 12:25:02;;;;;;;2.33;1.30;;;;;;;23.28;30.39;99269.84;2619376;39;20550;-65
2022/05/14 12:27:35;;;;;;;4.93;1.48;;;;;;;23.09;30.48;99264.88;2618324;54;20557;-65
2022/05/14 12:30:08;;;;;;;3.38;1.90;;;;;;;23.21;30.35;99262.78;2618658;54;20884;-65
2022/05/14 12:35:36;;;;;;;2.38;1.05;;;;;;;23.24;30.38;99262.25;2618412;54;20030;-64
2022/05/14 12:38:14;;;;;;;2.50;1.33;;;;;;;23.43;30.32;99259.91;2617630;47;20037;-65
2022/05/14 12:40:48;;;;;;;4.18;1.63;;;;;;;23.61;29.35;99255.88;2617797;54;20069;-65
2022/05/14 12:43:18;;;;;;;3.05;1.23;;;;;;;23.67;29.51;99254.84;2618589;54;20026;-66
2022/05/14 12:46:03;;;;;;;2.80;1.25;;;;;;;23.82;29.59;99253.25;2618920;39;20431;-64
2022/05/14 12:48:34;;;;;;;3.25;1.40;;;;;;;23.94;29.37;99248.41;2618748;54;20027;-65
2022/05/14 12:51:03;;;;;;;3.45;1.30;;;;;;;24.03;28.59;99243.28;2619221;54;20037;-64
2022/05/14 12:53:40;;;;;;;3.85;1.73;;;;;;;;;;2619572;54;20030;-65
2022/05/14 12:56:10;;;;;;;2.30;1.40;;;;;;;23.79;28.91;99241.09;2620125;39;20489;-64
2022/05/14 12:58:42;;;;;;;4.28;1.38;;;;;;;23.67;29.11;99240.53;2619545;54;20042;-66
2022/05/14 13:01:13;;;;;;;2.30;1.30;;;;;;;23.85;28.90;99228.44;2618906;54;20045;-64
2022/05/14 13:03:48;;;;;;;2.40;1.23;;;;;;;24.04;28.67;99234.91;2619322;54;20534;-66
2022/05/14 13:06:22;;;;;;;4.13;1.70;;;;;;;24.22;28.57;99237.06;2619578;54;20041;-66
2022/05/14 13:08:59;;;;;;;2.83;2.20;;;;;;;24.43;28.18;99227.06;2619158;54;20812;-64
2022/05/14 13:11:31;;;;;;;4.00;1.50;;;;;;;24.43;28.03;99224.38;2618651;47;20045;-65
2022/05/14 13:14:14;;;;;;;6.43;1.50;;;;;;;24.37;27.39;99220.03;2621798;54;20030;-65
2022/05/14 13:16:53;;;;;;;3.22;1.42;;;;;;;24.45;27.56;99221.38;2622520;54;20633;-64
2022/05/14 13:19:31;;;;;;;29.67;21.70;;;;;;;24.55;27.42;99215.97;2620986;54;20038;-65
2022/05/14 13:22:00;;;;;;;2.22;1.50;;;;;;;24.36;27.37;99213.00;2620274;54;20561;-65
2022/05/14 13:24:34;;;;;;;3.97;1.27;;;;;;;24.48;27.36;99211.94;2620762;54;20034;-63
2022/05/14 13:27:09;;;;;;;3.75;1.17;;;;;;;24.66;26.83;99201.34;2620288;54;20034;-66
2022/05/14 13:29:41;;;;;;;1.52;1.20;;;;;;;24.79;26.91;99207.25;2618795;47;20042;-64
2022/05/14 13:32:15;;;;;;;4.38;1.35;;;;;;;25.03;26.08;99205.53;2619574;54;20028;-64
2022/05/14 13:37:34;;;;;;;4.80;1.40;;;;;;;24.82;25.34;99196.69;2619283;54;20041;-64
2022/05/14 13:40:14;;;;;;;3.83;0.90;;;;;;;24.54;25.04;99202.75;2619795;54;20034;-64
2022/05/14 13:42:47;;;;;;;3.97;1.20;;;;;;;24.31;25.92;99190.59;2619512;54;20141;-64
2022/05/14 13:45:21;;;;;;;4.75;1.20;;;;;;;24.45;26.13;99183.53;2619949;54;20045;-65
2022/05/14 13:47:53;;;;;;;2.72;1.30;;;;;;;24.84;26.27;99191.00;2619855;54;20640;-64
2022/05/14 13:50:27;;;;;;;2.97;1.40;;;;;;;25.14;25.73;99184.66;2619367;54;20023;-64
2022/05/14 13:52:57;;;;;;;4.22;1.77;;;;;;;25.23;25.15;99172.19;2619410;54;20549;-64
2022/05/14 13:55:37;;;;;;;1.73;1.30;;;;;;;25.23;24.26;99174.88;2619894;54;20049;-64
2022/05/14 13:58:15;;;;;;;3.22;1.33;;;;;;;25.08;24.40;99170.34;2619509;54;20043;-67
2022/05/14 14:00:59;;;;;;;2.38;1.13;;;;;;;25.01;24.86;99169.81;2620570;54;20023;-64
2022/05/14 14:03:33;;;;;;;3.80;1.73;;;;;;;25.08;24.67;99169.53;2619056;47;20464;-64
2022/05/14 14:06:02;;;;;;;3.75;1.38;;;;;;;25.16;24.73;99169.78;2619791;49;20045;-64
2022/05/14 14:08:32;;;;;;;19.67;13.90;;;;;;;25.07;25.53;99166.03;2619718;54;20030;-65
2022/05/14 14:11:04;;;;;;;2.88;1.60;;;;;;;25.23;25.31;99158.66;2620023;54;20041;-64
2022/05/14 14:13:34;;;;;;;4.40;2.22;;;;;;;25.43;24.79;99163.09;2619687;54;20038;-65
2022/05/14 14:16:04;;;;;;;3.63;1.83;;;;;;;25.55;24.00;99160.03;2619286;46;20054;-64
2022/05/14 14:18:34;;;;;;;2.63;1.40;;;;;;;25.52;23.85;99150.59;2619218;54;20038;-65
2022/05/14 14:21:08;;;;;;;2.42;1.27;;;;;;;25.22;23.62;99156.22;2619757;39;20419;-67
2022/05/14 14:23:41;;;;;;;2.28;1.40;;;;;;;25.21;23.89;99144.59;2619356;54;20030;-64
2022/05/14 14:26:15;;;;;;;2.92;1.30;;;;;;;25.44;23.56;99143.91;2619381;54;20030;-64